createdAt,value
2022-09-11T00:01:31.190Z,22.60
2022-09-11T00:03:36.563Z,21.73
2022-09-11T00:05:41.895Z,19.52
2022-09-11T00:07:48.239Z,20.77
2022-09-11T00:09:52.592Z,22.65
2022-09-11T00:11:56.797Z,22.98
2022-09-11T00:14:01.945Z,20.90
2022-09-11T00:16:07.919Z,21.00
2022-09-11T00:18:13.299Z,17.17
2022-09-11T00:20:17.615Z,18.90
2022-09-11T00:22:21.889Z,18.08
2022-09-11T00:24:27.540Z,26.20
2022-09-11T00:26:31.853Z,26.17
2022-09-11T00:28:37.117Z,22.63
2022-09-11T00:30:42.218Z,26.83
2022-09-11T00:32:46.612Z,27.33
2022-09-11T00:34:51.607Z,22.17
2022-09-11T00:36:56.003Z,19.52
2022-09-11T00:39:01.618Z,21.75
2022-09-11T00:41:14.858Z,20.55
2022-09-11T00:43:19.485Z,22.92
2022-09-11T00:45:27.152Z,20.45
2022-09-11T00:47:32.963Z,28.08
2022-09-11T00:49:41.599Z,19.45
2022-09-11T00:51:48.728Z,21.33
2022-09-11T00:53:54.536Z,24.58
2022-09-11T00:56:03.413Z,23.85
2022-09-11T00:58:16.060Z,23.98
2022-09-11T01:00:20.691Z,24.50
2022-09-11T01:02:27.625Z,24.75
2022-09-11T01:04:33.565Z,21.95
2022-09-11T01:06:37.880Z,26.15
2022-09-11T01:08:42.200Z,24.88
2022-09-11T01:11:05.869Z,27.65
2022-09-11T01:13:18.752Z,23.23
2022-09-11T01:15:25.649Z,28.27
2022-09-11T01:17:37.277Z,25.02
2022-09-11T01:20:13.408Z,28.23
2022-09-11T01:22:39.637Z,23.63
2022-09-11T01:24:56.540Z,26.83
2022-09-11T01:27:30.287Z,23.40
2022-09-11T01:29:41.508Z,27.23
2022-09-11T01:31:57.724Z,24.67
2022-09-11T01:34:11.014Z,31.20
2022-09-11T01:36:21.045Z,28.45
2022-09-11T01:38:33.577Z,26.00
2022-09-11T01:40:46.042Z,29.75
2022-09-11T01:42:55.029Z,36.17
2022-09-11T01:44:59.511Z,29.27
2022-09-11T01:47:06.739Z,30.88
2022-09-11T01:49:16.938Z,31.23
2022-09-11T01:51:26.830Z,29.92
2022-09-11T01:53:38.318Z,27.23
2022-09-11T01:55:47.495Z,28.70
2022-09-11T01:58:00.194Z,30.73
2022-09-11T02:00:10.105Z,26.45
2022-09-11T02:02:24.111Z,28.88
2022-09-11T02:04:31.596Z,28.95
2022-09-11T02:06:50.077Z,27.95
2022-09-11T02:08:59.349Z,30.75
2022-09-11T02:11:09.272Z,27.25
2022-09-11T02:13:20.843Z,29.95
2022-09-11T02:15:28.137Z,30.40
2022-09-11T02:17:42.963Z,27.83
2022-09-11T02:19:47.291Z,28.25
2022-09-11T02:21:52.202Z,33.72
2022-09-11T02:23:57.200Z,27.17
2022-09-11T02:26:02.317Z,27.80
2022-09-11T02:28:07.731Z,29.80
2022-09-11T02:30:15.307Z,25.63
2022-09-11T02:32:20.805Z,24.77
2022-09-11T02:34:29.811Z,24.77
2022-09-11T02:36:52.256Z,26.13
2022-09-11T02:39:08.359Z,23.75
2022-09-11T02:41:18.248Z,24.35
2022-09-11T02:43:35.813Z,26.23
2022-09-11T02:45:54.352Z,25.38
2022-09-11T02:48:11.495Z,30.70
2022-09-11T02:50:26.185Z,23.88
2022-09-11T02:52:42.938Z,25.00
2022-09-11T02:54:55.313Z,23.50
2022-09-11T02:57:07.808Z,24.35
2022-09-11T02:59:19.842Z,25.30
2022-09-11T03:01:26.215Z,22.85
2022-09-11T03:03:37.981Z,25.13
2022-09-11T03:05:43.469Z,23.42
2022-09-11T03:07:47.781Z,21.75
2022-09-11T03:09:52.512Z,23.65
2022-09-11T03:11:59.734Z,21.42
2022-09-11T03:14:03.902Z,27.00
2022-09-11T03:16:09.214Z,21.38
2022-09-11T03:18:15.737Z,21.95
2022-09-11T03:20:20.936Z,26.10
2022-09-11T03:22:25.108Z,21.35
2022-09-11T03:24:31.531Z,24.27
2022-09-11T03:26:41.255Z,24.73
2022-09-11T03:28:45.878Z,21.05
2022-09-11T03:30:53.160Z,24.23
2022-09-11T03:32:58.705Z,21.10
2022-09-11T03:35:04.894Z,23.20
2022-09-11T03:37:09.474Z,24.48
2022-09-11T03:39:13.694Z,23.38
2022-09-11T03:41:17.995Z,26.90
2022-09-11T03:43:22.358Z,24.60
2022-09-11T03:45:27.304Z,24.00
2022-09-11T03:47:31.747Z,20.95
2022-09-11T03:49:36.497Z,22.80
2022-09-11T03:51:42.334Z,24.40
2022-09-11T03:53:46.612Z,22.00
2022-09-11T03:55:52.141Z,22.67
2022-09-11T03:57:56.719Z,23.90
2022-09-11T04:00:03.174Z,21.10
2022-09-11T04:02:24.797Z,24.80
2022-09-11T04:04:31.275Z,22.17
2022-09-11T04:06:35.736Z,23.25
2022-09-11T04:08:43.690Z,19.38
2022-09-11T04:10:49.174Z,17.88
2022-09-11T04:12:53.561Z,21.17
2022-09-11T04:14:59.414Z,17.92
2022-09-11T04:17:03.919Z,21.58
2022-09-11T04:19:08.233Z,18.13
2022-09-11T04:21:14.976Z,16.98
2022-09-11T04:23:20.939Z,20.48
2022-09-11T04:25:26.821Z,21.13
2022-09-11T04:27:31.932Z,18.40
2022-09-11T04:29:36.367Z,16.55
2022-09-11T04:31:41.417Z,18.05
2022-09-11T04:33:47.322Z,17.83
2022-09-11T04:35:52.069Z,16.88
2022-09-11T04:37:58.165Z,15.93
2022-09-11T04:40:02.590Z,15.43
2022-09-11T04:42:10.733Z,16.20
2022-09-11T04:44:17.284Z,17.50
2022-09-11T04:46:22.055Z,15.07
2022-09-11T04:48:26.454Z,15.93
2022-09-11T04:50:31.598Z,16.25
2022-09-11T04:52:51.768Z,17.05
2022-09-11T04:54:56.479Z,19.05
2022-09-11T04:57:01.986Z,12.80
2022-09-11T04:59:13.511Z,14.88
2022-09-11T05:01:20.593Z,14.43
2022-09-11T05:03:30.049Z,13.32
2022-09-11T05:05:36.244Z,12.57
2022-09-11T05:07:40.644Z,14.68
2022-09-11T05:09:47.443Z,15.27
2022-09-11T05:11:52.627Z,16.50
2022-09-11T05:14:00.203Z,17.50
2022-09-11T05:16:11.039Z,14.32
2022-09-11T05:20:21.334Z,13.13
2022-09-11T05:22:25.689Z,16.58
2022-09-11T05:24:34.126Z,12.75
2022-09-11T05:26:39.753Z,17.17
2022-09-11T05:28:44.830Z,21.25
2022-09-11T05:30:49.738Z,15.10
2022-09-11T05:32:56.213Z,12.48
2022-09-11T05:35:00.788Z,13.65
2022-09-11T05:37:05.632Z,16.60
2022-09-11T05:39:15.552Z,13.05
2022-09-11T05:41:20.581Z,14.93
2022-09-11T05:43:26.640Z,17.17
2022-09-11T05:45:32.081Z,14.25
2022-09-11T05:47:36.443Z,11.50
2022-09-11T05:49:43.877Z,13.10
2022-09-11T05:51:48.332Z,12.88
2022-09-11T05:53:54.359Z,13.32
2022-09-11T05:56:00.396Z,16.42
2022-09-11T05:58:05.464Z,12.75
2022-09-11T06:00:13.443Z,17.60
2022-09-11T06:02:27.489Z,12.15
2022-09-11T06:04:32.384Z,12.00
2022-09-11T06:06:39.411Z,13.48
2022-09-11T06:08:44.341Z,12.13
2022-09-11T06:10:48.591Z,13.55
2022-09-11T06:12:54.598Z,13.38
2022-09-11T06:14:58.907Z,13.43
2022-09-11T06:17:03.327Z,16.30
2022-09-11T06:19:10.396Z,15.15
2022-09-11T06:21:19.442Z,14.35
2022-09-11T06:23:45.019Z,17.02
2022-09-11T06:25:49.668Z,15.45
2022-09-11T06:27:53.978Z,14.70
2022-09-11T06:29:58.791Z,18.08
2022-09-11T06:32:03.975Z,12.98
2022-09-11T06:34:09.717Z,15.85
2022-09-11T06:36:16.034Z,14.60
2022-09-11T06:38:20.707Z,17.08
2022-09-11T06:40:26.729Z,16.58
2022-09-11T06:42:31.967Z,10.88
2022-09-11T06:44:38.646Z,13.90
2022-09-11T06:46:44.453Z,11.40
2022-09-11T06:48:52.146Z,12.30
2022-09-11T06:51:04.832Z,13.57
2022-09-11T06:53:11.862Z,13.15
2022-09-11T06:55:27.618Z,12.73
2022-09-11T06:57:41.663Z,12.77
2022-09-11T06:59:52.587Z,10.25
2022-09-11T07:01:58.102Z,12.60
2022-09-11T07:04:04.374Z,11.20
2022-09-11T07:06:10.421Z,17.90
2022-09-11T07:08:20.768Z,11.23
2022-09-11T07:10:30.366Z,10.65
2022-09-11T07:12:38.922Z,10.30
2022-09-11T07:14:43.979Z,8.35
2022-09-11T07:16:55.349Z,12.82
2022-09-11T07:19:00.074Z,10.60
2022-09-11T07:21:07.633Z,13.02
2022-09-11T07:23:13.145Z,13.88
2022-09-11T07:25:18.378Z,9.55
2022-09-11T07:27:25.575Z,11.63
2022-09-11T07:29:31.578Z,7.57
2022-09-11T07:31:39.827Z,9.10
2022-09-11T07:33:46.659Z,9.68
2022-09-11T07:35:52.455Z,7.93
2022-09-11T07:37:56.830Z,7.28
2022-09-11T07:40:03.757Z,8.00
2022-09-11T07:42:09.116Z,8.43
2022-09-11T07:44:18.129Z,10.10
2022-09-11T07:46:22.915Z,10.57
2022-09-11T07:48:27.197Z,5.70
2022-09-11T07:50:31.874Z,8.77
2022-09-11T07:52:37.942Z,5.80
2022-09-11T07:54:44.043Z,5.43
2022-09-11T07:56:50.028Z,7.55
2022-09-11T07:58:56.248Z,9.95
2022-09-11T08:01:05.130Z,5.38
2022-09-11T08:03:09.998Z,8.07
2022-09-11T08:05:15.958Z,7.20
2022-09-11T08:07:26.215Z,6.47
2022-09-11T08:09:31.193Z,7.18
2022-09-11T08:11:39.737Z,5.00
2022-09-11T08:13:45.000Z,4.20
2022-09-11T08:15:49.524Z,5.78
2022-09-11T08:17:56.946Z,6.13
2022-09-11T08:20:01.346Z,4.20
2022-09-11T08:22:07.371Z,5.25
2022-09-11T08:24:18.208Z,4.10
2022-09-11T08:26:25.049Z,8.05
2022-09-11T08:28:34.045Z,7.50
2022-09-11T08:30:39.380Z,4.93
2022-09-11T08:32:44.162Z,9.40
2022-09-11T08:34:49.884Z,2.75
2022-09-11T08:36:54.380Z,4.50
2022-09-11T08:39:03.033Z,3.30
2022-09-11T08:41:15.138Z,4.00
2022-09-11T08:43:24.571Z,4.78
2022-09-11T08:45:34.990Z,3.83
2022-09-11T08:47:44.063Z,5.70
2022-09-11T08:49:56.615Z,5.38
2022-09-11T08:52:06.183Z,5.60
2022-09-11T08:54:27.416Z,4.35
2022-09-11T08:56:36.435Z,3.05
2022-09-11T08:58:51.267Z,3.22
2022-09-11T09:01:05.796Z,5.20
2022-09-11T09:03:35.938Z,3.20
2022-09-11T09:05:54.069Z,6.43
2022-09-11T09:08:12.412Z,3.10
2022-09-11T09:10:27.474Z,4.38
2022-09-11T09:12:45.807Z,5.07
2022-09-11T09:15:24.272Z,6.82
2022-09-11T09:17:37.871Z,6.00
2022-09-11T09:19:47.611Z,5.30
2022-09-11T09:22:09.234Z,5.38
2022-09-11T09:24:20.745Z,8.90
2022-09-11T09:26:38.314Z,6.28
2022-09-11T09:28:47.140Z,3.95
2022-09-11T09:30:55.627Z,6.53
2022-09-11T09:33:03.174Z,6.95
2022-09-11T09:35:16.998Z,6.18
2022-09-11T09:37:26.297Z,7.38
2022-09-11T09:39:31.672Z,6.30
2022-09-11T09:41:59.646Z,9.38
2022-09-11T09:44:14.570Z,8.35
2022-09-11T09:46:28.855Z,6.72
2022-09-11T09:48:37.127Z,6.05
2022-09-11T09:50:44.003Z,8.02
2022-09-11T09:52:51.139Z,5.55
2022-09-11T09:54:58.574Z,6.97
2022-09-11T09:57:06.475Z,5.45
2022-09-11T09:59:18.383Z,6.30
2022-09-11T10:01:46.132Z,10.88
2022-09-11T10:04:11.046Z,6.65
2022-09-11T10:06:15.492Z,6.43
2022-09-11T10:08:33.903Z,8.70
2022-09-11T10:10:40.454Z,7.10
2022-09-11T10:12:47.023Z,9.10
2022-09-11T10:14:55.385Z,8.90
2022-09-11T10:17:00.568Z,7.10
2022-09-11T10:19:04.844Z,7.35
2022-09-11T10:21:24.624Z,6.50
2022-09-11T10:23:31.058Z,5.40
2022-09-11T10:25:48.254Z,6.22
2022-09-11T10:28:02.383Z,5.82
2022-09-11T10:30:07.557Z,4.93
2022-09-11T10:32:19.303Z,7.53
2022-09-11T10:34:25.473Z,4.15
2022-09-11T10:36:31.820Z,6.32
2022-09-11T10:38:47.077Z,7.25
2022-09-11T10:41:03.653Z,6.28
2022-09-11T10:43:18.074Z,5.97
2022-09-11T10:45:23.804Z,4.80
2022-09-11T10:47:29.167Z,4.28
2022-09-11T10:49:35.763Z,3.92
2022-09-11T10:51:46.827Z,5.88
2022-09-11T10:54:23.605Z,5.22
2022-09-11T10:56:28.762Z,4.97
2022-09-11T10:58:39.111Z,3.95
2022-09-11T11:00:43.317Z,8.45
2022-09-11T11:02:50.172Z,8.85
2022-09-11T11:04:54.337Z,3.50
2022-09-11T11:07:11.294Z,4.97
2022-09-11T11:09:42.354Z,4.57
2022-09-11T11:11:59.323Z,7.30
2022-09-11T11:14:25.467Z,5.47
2022-09-11T11:16:39.932Z,3.90
2022-09-11T11:18:58.294Z,3.75
2022-09-11T11:21:17.405Z,5.18
2022-09-11T11:24:00.153Z,5.00
2022-09-11T11:26:20.287Z,5.60
2022-09-11T11:28:45.446Z,4.05
2022-09-11T11:31:01.078Z,7.22
2022-09-11T11:33:32.387Z,4.32
2022-09-11T11:35:45.063Z,6.20
2022-09-11T11:37:50.547Z,5.20
2022-09-11T11:40:01.898Z,7.63
2022-09-11T11:42:15.997Z,6.68
2022-09-11T11:44:31.073Z,3.97
2022-09-11T11:46:39.784Z,4.65
2022-09-11T11:48:51.004Z,3.08
2022-09-11T11:50:58.086Z,2.92
2022-09-11T11:53:12.425Z,2.92
2022-09-11T11:55:20.829Z,8.50
2022-09-11T11:57:31.233Z,4.63
2022-09-11T11:59:42.603Z,4.80
2022-09-11T12:01:51.866Z,3.40
2022-09-11T12:04:06.181Z,4.57
2022-09-11T12:06:10.529Z,5.20
2022-09-11T12:08:15.929Z,3.83
2022-09-11T12:10:25.380Z,4.75
2022-09-11T12:12:34.097Z,4.15
2022-09-11T12:14:39.083Z,5.73
2022-09-11T12:16:44.372Z,4.60
2022-09-11T12:19:07.674Z,5.07
2022-09-11T12:21:37.472Z,2.60
2022-09-11T12:24:15.017Z,6.20
2022-09-11T12:26:22.225Z,2.60
2022-09-11T12:28:28.156Z,2.45
2022-09-11T12:30:58.190Z,7.03
2022-09-11T12:33:03.006Z,1.63
2022-09-11T12:35:41.719Z,7.05
2022-09-11T12:37:51.027Z,7.10
2022-09-11T12:40:07.669Z,3.97
2022-09-11T12:42:49.684Z,3.22
2022-09-11T12:45:04.329Z,4.78
2022-09-11T12:47:16.634Z,3.88
2022-09-11T12:49:23.844Z,3.05
2022-09-11T12:51:33.936Z,2.63
2022-09-11T12:53:39.825Z,5.88
2022-09-11T12:55:55.523Z,3.92
2022-09-11T12:58:03.794Z,8.13
2022-09-11T13:00:24.075Z,2.58
2022-09-11T13:02:35.621Z,3.55
2022-09-11T13:04:39.997Z,5.95
2022-09-11T13:06:48.357Z,2.08
2022-09-11T13:08:55.882Z,2.28
2022-09-11T13:11:33.026Z,6.70
2022-09-11T13:13:46.977Z,2.97
2022-09-11T13:15:57.392Z,2.95
2022-09-11T13:18:01.727Z,3.97
2022-09-11T13:20:23.410Z,2.47
2022-09-11T13:22:29.262Z,3.88
2022-09-11T13:26:43.218Z,3.00
2022-09-11T13:28:51.484Z,6.10
2022-09-11T13:31:00.621Z,4.13
2022-09-11T13:33:08.349Z,1.50
2022-09-11T13:35:17.009Z,3.95
2022-09-11T13:37:36.229Z,1.83
2022-09-11T13:39:43.459Z,5.28
2022-09-11T13:41:50.845Z,6.68
2022-09-11T13:43:58.570Z,2.55
2022-09-11T13:46:22.440Z,3.88
2022-09-11T13:48:28.063Z,8.68
2022-09-11T13:50:33.205Z,2.13
2022-09-11T13:52:38.601Z,2.70
2022-09-11T13:54:47.687Z,2.25
2022-09-11T13:57:15.267Z,1.88
2022-09-11T13:59:41.796Z,2.22
2022-09-11T14:01:55.609Z,2.42
2022-09-11T14:03:59.799Z,1.27
2022-09-11T14:06:10.171Z,4.97
2022-09-11T14:08:24.925Z,2.13
2022-09-11T14:10:33.294Z,1.95
2022-09-11T14:12:49.439Z,3.20
2022-09-11T14:14:57.984Z,5.20
2022-09-11T14:17:04.909Z,4.40
2022-09-11T14:19:14.426Z,1.90
2022-09-11T14:21:22.956Z,3.28
2022-09-11T14:23:29.358Z,3.90
2022-09-11T14:25:34.179Z,5.82
2022-09-11T14:27:42.838Z,2.00
2022-09-11T14:29:55.703Z,2.85
2022-09-11T14:32:31.213Z,1.00
2022-09-11T14:34:35.775Z,5.18
2022-09-11T14:36:44.203Z,4.70
2022-09-11T14:38:48.895Z,1.92
2022-09-11T14:40:56.781Z,3.33
2022-09-11T14:43:00.981Z,5.32
2022-09-11T14:45:09.526Z,2.08
2022-09-11T14:47:17.414Z,2.25
2022-09-11T14:49:23.083Z,2.78
2022-09-11T14:51:27.310Z,3.10
2022-09-11T14:53:33.438Z,1.63
2022-09-11T14:55:37.819Z,1.40
2022-09-11T14:57:42.470Z,1.40
2022-09-11T14:59:47.153Z,4.03
2022-09-11T15:01:52.370Z,1.98
2022-09-11T15:03:57.062Z,1.88
2022-09-11T15:06:03.041Z,4.45
2022-09-11T15:08:07.281Z,3.50
2022-09-11T15:10:13.375Z,4.95
2022-09-11T15:12:17.751Z,1.77
2022-09-11T15:14:38.506Z,3.35
2022-09-11T15:16:47.346Z,1.70
2022-09-11T15:18:51.539Z,7.35
2022-09-11T15:20:55.674Z,5.78
2022-09-11T15:23:01.700Z,8.65
2022-09-11T15:25:06.429Z,3.15
2022-09-11T15:27:11.375Z,3.88
2022-09-11T15:29:15.537Z,7.82
2022-09-11T15:31:19.803Z,5.15
2022-09-11T15:33:23.953Z,3.40
2022-09-11T15:35:32.749Z,5.88
2022-09-11T15:37:37.318Z,2.17
2022-09-11T15:39:42.964Z,2.45
2022-09-11T15:41:48.029Z,2.28
2022-09-11T15:43:53.128Z,2.83
2022-09-11T15:45:57.479Z,5.35
2022-09-11T15:48:02.798Z,5.60
2022-09-11T15:50:07.812Z,2.85
2022-09-11T15:52:12.349Z,5.30
2022-09-11T15:54:16.901Z,4.57
2022-09-11T15:56:25.952Z,4.50
2022-09-11T15:58:31.277Z,3.00
2022-09-11T16:00:36.849Z,2.92
2022-09-11T16:02:42.101Z,3.60
2022-09-11T16:04:51.582Z,2.72
2022-09-11T16:06:57.726Z,7.45
2022-09-11T16:09:05.219Z,3.15
2022-09-11T16:11:12.077Z,3.03
2022-09-11T16:13:18.265Z,3.55
2022-09-11T16:15:23.037Z,2.30
2022-09-11T16:17:31.283Z,3.58
2022-09-11T16:19:36.092Z,2.85
2022-09-11T16:21:41.064Z,2.45
2022-09-11T16:23:48.775Z,5.45
2022-09-11T16:25:57.494Z,4.80
2022-09-11T16:28:02.100Z,4.00
2022-09-11T16:30:39.268Z,2.88
2022-09-11T16:32:37.564Z,5.20
2022-09-11T16:34:44.357Z,3.22
2022-09-11T16:36:49.137Z,2.10
2022-09-11T16:38:55.075Z,1.48
2022-09-11T16:41:03.226Z,2.10
2022-09-11T16:43:07.694Z,3.60
2022-09-11T16:45:13.550Z,4.60
2022-09-11T16:47:18.389Z,2.90
2022-09-11T16:49:24.094Z,1.95
2022-09-11T16:51:29.767Z,4.60
2022-09-11T16:53:35.768Z,9.48
2022-09-11T16:55:40.332Z,4.45
2022-09-11T16:57:46.547Z,8.18
2022-09-11T16:59:51.373Z,8.75
2022-09-11T17:01:58.664Z,2.45
2022-09-11T17:04:03.865Z,4.43
2022-09-11T17:06:08.458Z,8.70
2022-09-11T17:08:12.828Z,4.13
2022-09-11T17:10:17.152Z,2.83
2022-09-11T17:12:22.377Z,2.65
2022-09-11T17:14:30.231Z,3.70
2022-09-11T17:16:35.820Z,5.13
2022-09-11T17:18:42.891Z,5.60
2022-09-11T17:20:47.249Z,2.83
2022-09-11T17:22:54.866Z,6.13
2022-09-11T17:25:02.140Z,4.82
2022-09-11T17:27:07.754Z,5.65
2022-09-11T17:29:11.955Z,5.97
2022-09-11T17:31:19.387Z,4.32
2022-09-11T17:33:23.962Z,9.07
2022-09-11T17:35:29.658Z,12.32
2022-09-11T17:37:33.994Z,4.88
2022-09-11T17:39:38.327Z,3.97
2022-09-11T17:41:44.195Z,3.45
2022-09-11T17:43:49.292Z,3.78
2022-09-11T17:45:54.290Z,1.83
2022-09-11T17:47:58.932Z,4.80
2022-09-11T17:50:03.141Z,7.10
2022-09-11T17:52:09.867Z,4.63
2022-09-11T17:54:14.178Z,4.47
2022-09-11T17:56:20.338Z,3.92
2022-09-11T17:58:24.567Z,5.57
2022-09-11T18:00:29.082Z,5.30
2022-09-11T18:02:33.846Z,4.18
2022-09-11T18:04:38.603Z,3.53
2022-09-11T18:06:43.726Z,2.13
2022-09-11T18:08:49.406Z,5.93
2022-09-11T18:10:55.988Z,5.78
2022-09-11T18:13:00.207Z,2.95
2022-09-11T18:15:04.859Z,5.95
2022-09-11T18:17:09.063Z,2.03
2022-09-11T18:19:13.307Z,6.13
2022-09-11T18:21:17.696Z,3.75
2022-09-11T18:23:23.829Z,7.18
2022-09-11T18:25:30.308Z,9.25
2022-09-11T18:27:35.171Z,7.15
2022-09-11T18:29:40.807Z,4.60
2022-09-11T18:31:47.227Z,8.48
2022-09-11T18:33:55.688Z,12.38
2022-09-11T18:36:03.889Z,5.65
2022-09-11T18:38:08.501Z,5.97
2022-09-11T18:40:12.944Z,6.10
2022-09-11T18:42:18.527Z,3.85
2022-09-11T18:44:24.800Z,5.88
2022-09-11T18:46:30.010Z,6.28
2022-09-11T18:48:35.308Z,4.57
2022-09-11T18:50:39.987Z,7.40
2022-09-11T18:52:44.103Z,3.75
2022-09-11T18:54:48.388Z,3.67
2022-09-11T18:56:52.528Z,6.35
2022-09-11T18:59:00.258Z,7.55
2022-09-11T19:01:08.015Z,5.15
2022-09-11T19:03:12.527Z,7.35
2022-09-11T19:05:19.218Z,6.55
2022-09-11T19:07:23.538Z,6.47
2022-09-11T19:09:29.523Z,5.60
2022-09-11T19:11:36.814Z,5.82
2022-09-11T19:13:42.927Z,7.50
2022-09-11T19:15:56.674Z,3.25
2022-09-11T19:18:01.639Z,5.40
2022-09-11T19:20:08.075Z,4.80
2022-09-11T19:22:12.382Z,5.22
2022-09-11T19:27:15.225Z,5.05
2022-09-11T19:29:23.265Z,7.50
2022-09-11T19:31:38.785Z,4.53
2022-09-11T19:33:50.341Z,5.97
2022-09-11T19:36:14.985Z,4.65
2022-09-11T19:38:41.728Z,4.07
2022-09-11T19:40:51.106Z,7.60
2022-09-11T19:42:55.208Z,5.82
2022-09-11T19:45:02.727Z,4.97
2022-09-11T19:47:29.981Z,7.78
2022-09-11T19:49:34.600Z,3.67
2022-09-11T19:51:40.391Z,9.25
2022-09-11T19:53:45.096Z,4.90
2022-09-11T19:55:53.648Z,8.07
2022-09-11T19:58:00.458Z,10.73
2022-09-11T20:00:05.598Z,7.22
2022-09-11T20:02:12.267Z,8.65
2022-09-11T20:04:19.210Z,4.82
2022-09-11T20:06:25.145Z,8.00
2022-09-11T20:08:29.545Z,6.72
2022-09-11T20:10:43.792Z,8.60
2022-09-11T20:12:50.034Z,5.80
2022-09-11T20:14:54.108Z,5.25
2022-09-11T20:17:00.421Z,6.03
2022-09-11T20:19:06.601Z,7.30
2022-09-11T20:21:14.011Z,7.63
2022-09-11T20:23:18.241Z,8.65
2022-09-11T20:25:23.572Z,4.65
2022-09-11T20:27:27.741Z,5.03
2022-09-11T20:29:31.902Z,6.28
2022-09-11T20:31:46.390Z,4.60
2022-09-11T20:33:51.171Z,8.52
2022-09-11T20:35:56.223Z,10.13
2022-09-11T20:38:02.039Z,7.60
2022-09-11T20:40:07.996Z,7.22
2022-09-11T20:42:13.528Z,5.65
2022-09-11T20:44:18.166Z,9.05
2022-09-11T20:46:22.301Z,5.57
2022-09-11T20:48:26.698Z,4.88
2022-09-11T20:50:31.401Z,4.47
2022-09-11T20:52:39.396Z,4.72
2022-09-11T20:54:45.657Z,4.85
2022-09-11T20:56:49.819Z,7.15
2022-09-11T20:58:53.988Z,5.20
2022-09-11T21:01:00.438Z,7.25
2022-09-11T21:03:05.085Z,7.90
2022-09-11T21:05:10.274Z,7.43
2022-09-11T21:07:14.562Z,4.68
2022-09-11T21:09:18.889Z,12.27
2022-09-11T21:11:24.800Z,9.68
2022-09-11T21:13:28.874Z,5.85
2022-09-11T21:15:33.208Z,8.23
2022-09-11T21:17:37.330Z,8.35
2022-09-11T21:19:41.804Z,7.38
2022-09-11T21:21:46.167Z,17.25
2022-09-11T21:23:54.427Z,6.82
2022-09-11T21:25:59.260Z,9.65
2022-09-11T21:28:05.101Z,6.28
2022-09-11T21:30:10.328Z,5.40
2022-09-11T21:32:14.677Z,7.10
2022-09-11T21:34:18.976Z,9.15
2022-09-11T21:36:23.491Z,5.28
2022-09-11T21:38:29.691Z,5.80
2022-09-11T21:40:34.267Z,5.40
2022-09-11T21:42:38.492Z,9.43
2022-09-11T21:44:44.054Z,6.70
2022-09-11T21:46:48.535Z,9.23
2022-09-11T21:48:53.564Z,6.80
2022-09-11T21:50:59.115Z,6.47
2022-09-11T21:53:03.220Z,5.88
2022-09-11T21:55:08.259Z,6.50
2022-09-11T21:57:12.411Z,8.25
2022-09-11T21:59:16.651Z,9.57
2022-09-11T22:01:23.575Z,5.95
2022-09-11T22:03:28.115Z,7.07
2022-09-11T22:05:32.633Z,8.38
2022-09-11T22:07:37.229Z,7.30
2022-09-11T22:09:41.402Z,7.75
2022-09-11T22:11:45.529Z,7.82
2022-09-11T22:13:49.790Z,10.10
2022-09-11T22:15:54.624Z,8.52
2022-09-11T22:18:00.616Z,10.40
2022-09-11T22:20:05.723Z,9.55
2022-09-11T22:22:09.953Z,7.53
2022-09-11T22:24:14.094Z,3.60
2022-09-11T22:26:20.757Z,5.90
2022-09-11T22:28:25.294Z,9.25
2022-09-11T22:30:30.396Z,10.23
2022-09-11T22:32:34.586Z,6.80
2022-09-11T22:34:40.242Z,8.20
2022-09-11T22:36:45.246Z,9.20
2022-09-11T22:38:49.965Z,7.55
2022-09-11T22:40:55.321Z,6.93
2022-09-11T22:43:00.454Z,5.65
2022-09-11T22:45:05.046Z,4.55
2022-09-11T22:47:09.459Z,5.10
2022-09-11T22:49:13.844Z,6.25
2022-09-11T22:51:20.167Z,7.22
2022-09-11T22:53:25.035Z,6.85
2022-09-11T22:55:29.295Z,7.35
2022-09-11T22:57:35.892Z,7.65
2022-09-11T22:59:40.082Z,5.43
2022-09-11T23:01:44.286Z,6.53
2022-09-11T23:03:48.731Z,7.03
2022-09-11T23:06:13.918Z,7.38
2022-09-11T23:08:19.494Z,6.85
2022-09-11T23:10:25.073Z,7.30
2022-09-11T23:12:29.256Z,6.35
2022-09-11T23:14:33.682Z,6.25
2022-09-11T23:16:38.329Z,4.93
2022-09-11T23:18:43.402Z,9.32
2022-09-11T23:20:47.963Z,13.07
2022-09-11T23:22:52.584Z,7.50
2022-09-11T23:24:58.312Z,8.75
2022-09-11T23:27:02.527Z,14.75
2022-09-11T23:29:06.741Z,5.68
2022-09-11T23:31:14.957Z,9.18
2022-09-11T23:33:19.124Z,7.00
2022-09-11T23:35:23.371Z,7.63
2022-09-11T23:37:28.300Z,10.20
2022-09-11T23:39:32.560Z,5.43
2022-09-11T23:41:38.147Z,7.85
2022-09-11T23:43:42.560Z,9.25
2022-09-11T23:45:46.722Z,7.03
2022-09-11T23:47:50.997Z,5.45
2022-09-11T23:49:55.179Z,7.22
2022-09-11T23:51:59.347Z,4.95
2022-09-11T23:54:03.590Z,4.43
2022-09-11T23:56:08.600Z,6.90
2022-09-11T23:58:14.098Z,9.85
